Time;durP1;ratioP1;P1;durP2;ratioP2;P2;SDS_P1;SDS_P2;PMS_P1;PMS_P2;Temp;Humidity;BMP_temperature;BMP_pressure;BME280_temperature;BME280_humidity;BME280_pressure;Samples;Min_cycle;Max_cycle;Signal;HPM_P1;HPM_P2
2021/12/25 00:01:25;;;;;;;;;;;7.00;99.90;;;;;;4969661;28;19981;-69
2021/12/25 00:03:52;;;;;;;;;;;7.10;99.90;;;;;;4985410;28;19910;-70
2021/12/25 00:06:18;;;;;;;;;;;6.90;99.90;;;;;;4985612;28;20117;-69
2021/12/25 00:08:44;;;;;;;;;;;7.00;99.90;;;;;;4986817;28;19969;-69
2021/12/25 00:11:10;;;;;;;;;;;6.90;99.90;;;;;;4986723;28;19941;-70
2021/12/25 00:13:38;;;;;;;;;;;6.80;99.90;;;;;;4966941;28;19911;-69
2021/12/25 00:16:04;;;;;;;;;;;6.90;99.90;;;;;;4966003;29;20272;-68
2021/12/25 00:18:30;;;;;;;;;;;6.90;99.90;;;;;;4950205;29;19906;-70
2021/12/25 00:20:56;;;;;;;;;;;6.80;99.90;;;;;;4967152;28;19914;-69
2021/12/25 00:23:22;;;;;;;;;;;6.80;99.90;;;;;;4966985;28;19998;-69
2021/12/25 00:25:54;;;;;;;;;;;6.90;99.90;;;;;;4965834;28;19977;-69
2021/12/25 00:28:37;;;;;;;;;;;6.90;99.90;;;;;;4967012;28;19906;-69
2021/12/25 00:36:00;;;;;;;;;;;6.90;99.90;;;;;;4966655;28;19913;-69
2021/12/25 00:38:26;;;;;;;;;;;6.90;99.90;;;;;;4965970;29;19977;-69
2021/12/25 00:40:52;;;;;;;;;;;6.90;99.90;;;;;;4966822;28;19913;-69
2021/12/25 00:43:17;;;;;;;;;;;6.90;99.90;;;;;;4982463;28;19917;-68
2021/12/25 00:45:43;;;;;;;;;;;6.90;99.90;;;;;;4985910;28;19984;-69
2021/12/25 00:48:09;;;;;;;;;;;7.00;99.90;;;;;;4986144;28;19977;-68
2021/12/25 00:50:34;;;;;;;;;;;6.90;99.90;;;;;;4985046;28;20108;-69
2021/12/25 00:53:00;;;;;;;;;;;6.90;99.90;;;;;;4985550;28;19914;-69
2021/12/25 00:55:26;;;;;;;;;;;6.90;99.90;;;;;;4985769;28;19973;-68
2021/12/25 00:57:51;;;;;;;;;;;6.90;99.90;;;;;;4985754;28;19912;-69
2021/12/25 01:00:17;;;;;;;;;;;6.90;99.90;;;;;;4985763;28;19945;-68
2021/12/25 01:02:44;;;;;;;;;;;6.80;99.90;;;;;;4984625;28;19917;-69
2021/12/25 01:05:10;;;;;;;;;;;6.80;99.90;;;;;;4985526;28;19906;-68
2021/12/25 01:07:35;;;;;;;;;;;6.80;99.90;;;;;;4985749;28;19906;-68
2021/12/25 01:10:03;;;;;;;;;;;6.90;99.90;;;;;;4985557;28;20004;-68
2021/12/25 01:12:35;;;;;;;;;;;6.80;99.90;;;;;;4985129;28;19906;-69
2021/12/25 01:15:04;;;;;;;;;;;6.80;99.90;;;;;;4985400;28;19920;-68
2021/12/25 01:18:01;;;;;;;;;;;6.80;99.90;;;;;;4984584;28;19906;-68
2021/12/25 01:27:14;;;;;;;;;;;6.80;99.90;;;;;;4985192;28;19910;-68
2021/12/25 01:39:26;;;;;;;;;;;6.80;99.90;;;;;;4985269;28;19906;-68
2021/12/25 01:49:48;;;;;;;;;;;6.80;99.90;;;;;;4984988;28;19944;-68
2021/12/25 01:52:14;;;;;;;;;;;6.80;99.90;;;;;;4967346;28;19910;-68
2021/12/25 01:54:39;;;;;;;;;;;6.70;99.90;;;;;;4984538;28;20256;-68
2021/12/25 01:57:05;;;;;;;;;;;6.60;99.90;;;;;;4984598;28;20006;-68
2021/12/25 01:59:31;;;;;;;;;;;6.50;99.90;;;;;;4984567;28;19912;-68
2021/12/25 02:01:57;;;;;;;;;;;6.50;99.90;;;;;;4984511;28;19906;-68
2021/12/25 02:04:22;;;;;;;;;;;6.60;99.90;;;;;;4984432;28;19910;-68
2021/12/25 02:06:48;;;;;;;;;;;6.60;99.90;;;;;;4984587;28;20144;-68
2021/12/25 02:09:14;;;;;;;;;;;6.60;99.90;;;;;;4984611;28;19969;-68
2021/12/25 02:11:39;;;;;;;;;;;6.60;99.90;;;;;;4984528;28;19914;-69
2021/12/25 02:14:05;;;;;;;;;;;6.60;99.90;;;;;;4984192;28;20227;-69
2021/12/25 02:16:41;;;;;;;;;;;6.60;99.90;;;;;;4982410;28;19940;-69
2021/12/25 02:19:13;;;;;;;;;;;6.60;99.90;;;;;;4984498;28;19905;-68
2021/12/25 02:21:40;;;;;;;;;;;6.70;99.90;;;;;;4984200;28;20221;-68
2021/12/25 02:24:07;;;;;;;;;;;6.80;99.90;;;;;;4984304;28;19933;-69
2021/12/25 02:26:33;;;;;;;;;;;6.80;99.90;;;;;;4984323;28;19905;-68
2021/12/25 02:28:58;;;;;;;;;;;6.80;99.90;;;;;;4984253;28;19906;-69
2021/12/25 02:31:24;;;;;;;;;;;6.80;99.90;;;;;;4984005;28;20285;-69
2021/12/25 02:33:50;;;;;;;;;;;6.70;99.90;;;;;;4984030;28;19906;-70
2021/12/25 02:36:16;;;;;;;;;;;6.70;99.90;;;;;;4983994;28;19906;-69
2021/12/25 02:38:42;;;;;;;;;;;6.70;99.90;;;;;;4984295;28;19913;-69
2021/12/25 02:41:08;;;;;;;;;;;6.70;99.90;;;;;;4983070;28;20243;-69
2021/12/25 02:43:34;;;;;;;;;;;6.60;99.90;;;;;;4983799;28;19914;-69
2021/12/25 02:46:04;;;;;;;;;;;6.60;99.90;;;;;;4983855;28;19910;-69
2021/12/25 02:48:31;;;;;;;;;;;6.60;99.90;;;;;;4983756;28;19906;-69
2021/12/25 02:50:56;;;;;;;;;;;6.70;99.90;;;;;;4983013;28;19928;-70
2021/12/25 02:53:22;;;;;;;;;;;6.80;99.90;;;;;;4983861;28;19941;-70
2021/12/25 02:55:48;;;;;;;;;;;6.80;99.90;;;;;;4983794;28;19973;-69
2021/12/25 02:58:14;;;;;;;;;;;6.80;99.90;;;;;;4983766;28;19906;-69
2021/12/25 03:00:43;;;;;;;;;;;6.80;99.90;;;;;;4982834;28;19906;-69
2021/12/25 03:03:09;;;;;;;;;;;6.80;99.90;;;;;;4983642;28;19941;-69
2021/12/25 03:05:36;;;;;;;;;;;6.80;99.90;;;;;;4983488;28;19906;-70
2021/12/25 03:08:02;;;;;;;;;;;6.80;99.90;;;;;;4985769;28;19941;-69
2021/12/25 03:10:28;;;;;;;;;;;6.80;99.90;;;;;;4987936;28;19912;-69
2021/12/25 03:13:05;;;;;;;;;;;6.90;99.90;;;;;;4987531;28;19934;-69
2021/12/25 03:15:42;;;;;;;;;;;6.90;99.90;;;;;;4978998;28;20104;-69
2021/12/25 03:18:07;;;;;;;;;;;6.80;99.90;;;;;;4978795;28;19910;-70
2021/12/25 03:20:34;;;;;;;;;;;6.70;99.90;;;;;;4987609;28;19968;-69
2021/12/25 03:23:00;;;;;;;;;;;6.60;99.90;;;;;;4987257;28;19956;-69
2021/12/25 03:25:25;;;;;;;;;;;6.60;99.90;;;;;;5018855;28;19906;-69
2021/12/25 03:27:51;;;;;;;;;;;6.60;99.90;;;;;;4987352;28;19906;-70
2021/12/25 03:30:17;;;;;;;;;;;6.50;99.90;;;;;;4987289;28;19906;-69
2021/12/25 03:32:45;;;;;;;;;;;6.60;99.90;;;;;;4987291;28;19921;-69
2021/12/25 03:35:10;;;;;;;;;;;6.50;99.90;;;;;;5018643;28;19905;-69
2021/12/25 03:37:36;;;;;;;;;;;6.40;99.90;;;;;;4987415;28;19912;-69
2021/12/25 03:40:03;;;;;;;;;;;6.50;99.90;;;;;;4987027;28;20134;-69
2021/12/25 03:42:29;;;;;;;;;;;6.40;99.90;;;;;;4986781;28;19917;-69
2021/12/25 03:44:54;;;;;;;;;;;6.30;99.90;;;;;;4986897;28;19906;-69
2021/12/25 03:47:34;;;;;;;;;;;6.40;99.90;;;;;;4987073;28;19906;-69
2021/12/25 03:58:18;;;;;;;;;;;6.60;99.90;;;;;;4986866;28;19921;-69
2021/12/25 04:00:46;;;;;;;;;;;6.50;99.90;;;;;;4986922;28;20193;-69
2021/12/25 04:03:19;;;;;;;;;;;6.40;99.90;;;;;;4986757;28;19948;-69
2021/12/25 04:05:47;;;;;;;;;;;6.40;99.90;;;;;;4986607;28;19921;-69
2021/12/25 04:08:15;;;;;;;;;;;6.40;99.90;;;;;;4986901;28;19953;-69
2021/12/25 04:10:43;;;;;;;;;;;6.40;99.90;;;;;;4986759;28;20256;-69
2021/12/25 04:13:14;;;;;;;;;;;6.40;99.90;;;;;;4985013;28;19906;-69
2021/12/25 04:15:40;;;;;;;;;;;6.40;99.90;;;;;;4985390;28;19944;-68
2021/12/25 04:18:05;;;;;;;;;;;6.30;99.90;;;;;;4984332;28;19906;-69
2021/12/25 04:20:31;;;;;;;;;;;6.40;99.90;;;;;;4986409;28;19906;-69
2021/12/25 04:23:11;;;;;;;;;;;6.50;99.90;;;;;;4986311;28;19910;-69
2021/12/25 04:25:37;;;;;;;;;;;6.60;99.90;;;;;;4985428;28;20243;-69
2021/12/25 04:28:13;;;;;;;;;;;6.60;99.90;;;;;;4986139;28;19906;-69
2021/12/25 05:03:07;;;;;;;;;;;6.50;99.90;;;;;;4984576;28;19985;-69
2021/12/25 05:05:33;;;;;;;;;;;6.50;99.90;;;;;;4984566;28;19914;-70
2021/12/25 05:07:58;;;;;;;;;;;6.50;99.90;;;;;;4984671;28;19945;-70
2021/12/25 05:10:24;;;;;;;;;;;6.40;99.90;;;;;;4984822;28;19906;-69
2021/12/25 05:12:50;;;;;;;;;;;6.40;99.90;;;;;;4984397;28;19914;-69
2021/12/25 05:15:15;;;;;;;;;;;6.40;99.90;;;;;;4984515;28;20136;-69
2021/12/25 05:17:41;;;;;;;;;;;6.30;99.90;;;;;;4984491;28;19985;-69
2021/12/25 05:20:07;;;;;;;;;;;6.30;99.90;;;;;;4984708;28;19912;-70
2021/12/25 05:22:33;;;;;;;;;;;6.30;99.90;;;;;;4983281;28;19910;-70
2021/12/25 05:24:59;;;;;;;;;;;6.30;99.90;;;;;;4984380;28;19906;-69
2021/12/25 05:27:24;;;;;;;;;;;6.20;99.90;;;;;;4984327;28;19906;-70
2021/12/25 05:29:50;;;;;;;;;;;6.20;99.90;;;;;;4984075;28;19929;-69
2021/12/25 05:32:17;;;;;;;;;;;6.20;99.90;;;;;;4984326;28;19906;-69
2021/12/25 05:34:43;;;;;;;;;;;6.20;99.90;;;;;;4982952;28;19906;-69
2021/12/25 05:37:09;;;;;;;;;;;6.30;99.90;;;;;;4984297;28;20148;-71
2021/12/25 05:39:35;;;;;;;;;;;6.30;99.90;;;;;;4984424;28;19969;-71
2021/12/25 05:42:01;;;;;;;;;;;6.30;99.90;;;;;;4983009;28;19909;-70
2021/12/25 05:44:27;;;;;;;;;;;6.30;99.90;;;;;;4983719;28;20186;-70
2021/12/25 05:46:53;;;;;;;;;;;6.30;99.90;;;;;;4984159;28;19906;-70
2021/12/25 05:49:18;;;;;;;;;;;6.30;99.90;;;;;;4984288;28;20112;-70
2021/12/25 05:51:44;;;;;;;;;;;6.30;99.90;;;;;;4983779;28;19918;-70
2021/12/25 05:54:10;;;;;;;;;;;6.30;99.90;;;;;;4943674;28;1186628;-70
2021/12/25 05:56:35;;;;;;;;;;;6.40;99.90;;;;;;4984821;28;20324;-70
2021/12/25 05:59:01;;;;;;;;;;;6.40;99.90;;;;;;4984668;28;19906;-69
2021/12/25 06:01:28;;;;;;;;;;;6.50;99.90;;;;;;4984567;28;19984;-70
2021/12/25 06:03:53;;;;;;;;;;;6.40;99.90;;;;;;4984658;28;19910;-70
2021/12/25 06:06:19;;;;;;;;;;;6.40;99.90;;;;;;4984394;28;20223;-69
2021/12/25 06:08:45;;;;;;;;;;;6.30;99.90;;;;;;4984510;28;19913;-69
2021/12/25 06:11:10;;;;;;;;;;;6.30;99.90;;;;;;4984691;28;19905;-69
2021/12/25 06:13:44;;;;;;;;;;;6.40;99.90;;;;;;4984177;28;19906;-69
2021/12/25 06:16:09;;;;;;;;;;;6.30;99.90;;;;;;4982816;28;19905;-69
2021/12/25 06:18:35;;;;;;;;;;;6.40;99.90;;;;;;4984480;28;19957;-69
2021/12/25 06:21:00;;;;;;;;;;;6.40;99.90;;;;;;4984417;28;19981;-69
2021/12/25 06:23:26;;;;;;;;;;;6.30;99.00;;;;;;4984258;28;20223;-69
2021/12/25 06:25:52;;;;;;;;;;;6.10;98.30;;;;;;4983916;28;19906;-68
2021/12/25 06:28:18;;;;;;;;;;;6.00;98.10;;;;;;4984138;28;19913;-69
2021/12/25 06:30:45;;;;;;;;;;;5.80;97.60;;;;;;4984411;28;19906;-69
2021/12/25 06:33:11;;;;;;;;;;;5.60;96.90;;;;;;4983102;28;19906;-69
2021/12/25 06:35:37;;;;;;;;;;;5.50;96.60;;;;;;4983926;28;20274;-69
2021/12/25 06:38:02;;;;;;;;;;;5.40;96.80;;;;;;4984353;28;19977;-69
2021/12/25 06:40:28;;;;;;;;;;;5.30;96.90;;;;;;4983901;28;20203;-69
2021/12/25 06:42:54;;;;;;;;;;;5.20;96.80;;;;;;4983038;28;19906;-70
2021/12/25 06:45:19;;;;;;;;;;;5.10;96.90;;;;;;4983935;28;19906;-69
2021/12/25 06:47:45;;;;;;;;;;;5.10;96.80;;;;;;4984190;28;19906;-69
2021/12/25 06:50:11;;;;;;;;;;;5.10;96.50;;;;;;4984048;28;20175;-69
2021/12/25 06:52:36;;;;;;;;;;;5.00;96.80;;;;;;4983790;28;19910;-69
2021/12/25 06:55:03;;;;;;;;;;;5.00;97.00;;;;;;4983780;28;19906;-69
2021/12/25 06:57:29;;;;;;;;;;;4.90;97.50;;;;;;4982876;28;19981;-69
2021/12/25 06:59:55;;;;;;;;;;;4.90;97.50;;;;;;4983763;28;19914;-69
2021/12/25 07:02:21;;;;;;;;;;;4.80;97.70;;;;;;4983904;28;19906;-69
2021/12/25 07:04:46;;;;;;;;;;;4.80;97.80;;;;;;4983727;28;20140;-69
2021/12/25 07:07:12;;;;;;;;;;;4.80;97.90;;;;;;4984053;28;19913;-69
2021/12/25 07:09:38;;;;;;;;;;;4.70;97.80;;;;;;4976407;28;19938;-69
2021/12/25 07:12:04;;;;;;;;;;;4.70;98.10;;;;;;4972272;28;19916;-69
2021/12/25 07:14:29;;;;;;;;;;;4.70;98.20;;;;;;5005146;28;19937;-68
2021/12/25 07:16:55;;;;;;;;;;;4.60;98.10;;;;;;4974495;28;19960;-69
2021/12/25 07:19:21;;;;;;;;;;;4.60;98.10;;;;;;4977396;28;20208;-69
2021/12/25 07:21:46;;;;;;;;;;;4.50;97.90;;;;;;4983711;28;19988;-69
2021/12/25 07:24:14;;;;;;;;;;;4.50;98.40;;;;;;4983970;28;19906;-69
2021/12/25 07:26:40;;;;;;;;;;;4.50;98.00;;;;;;4980914;28;19905;-69
2021/12/25 07:29:06;;;;;;;;;;;4.70;97.50;;;;;;4983256;28;19933;-69
2021/12/25 07:31:31;;;;;;;;;;;4.60;97.20;;;;;;4982974;28;20205;-69
2021/12/25 07:33:57;;;;;;;;;;;4.50;97.50;;;;;;4975442;28;19917;-68
2021/12/25 07:36:23;;;;;;;;;;;4.50;97.80;;;;;;4972017;28;20138;-69
2021/12/25 07:38:49;;;;;;;;;;;4.50;97.70;;;;;;4977141;28;20325;-68
2021/12/25 07:41:15;;;;;;;;;;;4.40;97.40;;;;;;4983066;28;20008;-68
2021/12/25 07:43:41;;;;;;;;;;;4.40;97.50;;;;;;4973684;28;19952;-69
2021/12/25 07:46:06;;;;;;;;;;;4.40;97.60;;;;;;4972574;28;20193;-69
2021/12/25 07:48:33;;;;;;;;;;;4.40;97.40;;;;;;4972402;28;19914;-69
2021/12/25 07:50:59;;;;;;;;;;;4.40;97.20;;;;;;4972755;28;19906;-69
2021/12/25 07:53:25;;;;;;;;;;;4.30;97.30;;;;;;4975841;28;20150;-68
2021/12/25 07:55:50;;;;;;;;;;;4.30;97.10;;;;;;4977272;28;19937;-68
2021/12/25 07:58:17;;;;;;;;;;;4.30;97.00;;;;;;4975622;28;19913;-68
2021/12/25 08:00:43;;;;;;;;;;;4.20;97.00;;;;;;4977545;28;19917;-69
2021/12/25 08:03:09;;;;;;;;;;;4.20;97.10;;;;;;4976943;28;20564;-68
2021/12/25 08:05:35;;;;;;;;;;;4.20;97.20;;;;;;4976603;28;19914;-68
2021/12/25 08:08:01;;;;;;;;;;;4.30;97.20;;;;;;4973700;28;19910;-68
2021/12/25 08:10:26;;;;;;;;;;;4.20;96.90;;;;;;4979149;28;20004;-68
2021/12/25 08:12:56;;;;;;;;;;;4.20;96.90;;;;;;4984941;28;19909;-70
2021/12/25 08:15:26;;;;;;;;;;;4.20;96.60;;;;;;4985360;28;20205;-69
2021/12/25 08:17:53;;;;;;;;;;;4.10;96.60;;;;;;4986705;28;19906;-68
2021/12/25 08:20:18;;;;;;;;;;;4.10;96.80;;;;;;4986310;28;19925;-68
2021/12/25 08:22:45;;;;;;;;;;;4.00;96.90;;;;;;4986529;28;20160;-69
2021/12/25 08:25:11;;;;;;;;;;;4.00;96.80;;;;;;4986297;28;19913;-68
2021/12/25 08:27:37;;;;;;;;;;;4.00;96.90;;;;;;4985693;28;19912;-68
2021/12/25 08:30:04;;;;;;;;;;;4.00;96.90;;;;;;4986095;28;20105;-69
2021/12/25 08:32:30;;;;;;;;;;;4.00;96.90;;;;;;4986198;28;19969;-69
2021/12/25 08:34:56;;;;;;;;;;;3.90;96.70;;;;;;4986005;28;19906;-69
2021/12/25 08:37:24;;;;;;;;;;;3.90;96.80;;;;;;4986142;28;19906;-69
2021/12/25 08:39:51;;;;;;;;;;;4.00;97.10;;;;;;4986135;28;19909;-69
2021/12/25 08:42:17;;;;;;;;;;;3.90;97.10;;;;;;4986007;28;20251;-68
2021/12/25 08:47:24;;;;;;;;;;;4.00;97.00;;;;;;4986326;28;19905;-67
2021/12/25 08:49:50;;;;;;;;;;;4.00;97.10;;;;;;4986056;28;19948;-68
2021/12/25 08:52:17;;;;;;;;;;;4.10;97.00;;;;;;4985661;28;19906;-68
2021/12/25 08:54:42;;;;;;;;;;;4.00;96.90;;;;;;4985707;28;19912;-68
2021/12/25 08:57:09;;;;;;;;;;;4.00;97.00;;;;;;4985816;28;19910;-68
2021/12/25 08:59:36;;;;;;;;;;;4.00;96.90;;;;;;4985580;28;20082;-67
2021/12/25 09:02:04;;;;;;;;;;;4.10;96.70;;;;;;4984587;28;19917;-67
2021/12/25 09:04:30;;;;;;;;;;;4.10;97.00;;;;;;4984809;28;20113;-67
2021/12/25 09:06:56;;;;;;;;;;;4.10;97.00;;;;;;4985810;28;19906;-67
2021/12/25 09:09:22;;;;;;;;;;;4.10;97.00;;;;;;4985270;28;20018;-67
2021/12/25 09:11:47;;;;;;;;;;;4.10;97.10;;;;;;4985250;28;19913;-68
2021/12/25 09:14:13;;;;;;;;;;;4.10;96.80;;;;;;4985201;28;19905;-68
2021/12/25 09:16:39;;;;;;;;;;;4.00;96.90;;;;;;4971914;28;20112;-67
2021/12/25 09:19:05;;;;;;;;;;;4.00;97.00;;;;;;4966296;28;19906;-68
2021/12/25 09:21:31;;;;;;;;;;;4.10;97.20;;;;;;4980928;28;19914;-68
2021/12/25 09:23:56;;;;;;;;;;;4.10;97.00;;;;;;4974201;28;19965;-68
2021/12/25 09:26:22;;;;;;;;;;;4.10;96.90;;;;;;4970648;28;19906;-67
2021/12/25 09:28:48;;;;;;;;;;;4.10;96.60;;;;;;4968386;28;19910;-67
2021/12/25 09:31:14;;;;;;;;;;;4.10;96.80;;;;;;4975613;28;19913;-67
2021/12/25 09:33:40;;;;;;;;;;;4.20;96.70;;;;;;4973461;28;19906;-67
2021/12/25 09:36:06;;;;;;;;;;;4.10;96.80;;;;;;4973501;28;20172;-67
2021/12/25 09:38:33;;;;;;;;;;;4.10;96.80;;;;;;4985144;28;19940;-68
2021/12/25 09:40:58;;;;;;;;;;;4.10;96.40;;;;;;4984998;28;19921;-67
2021/12/25 09:43:24;;;;;;;;;;;4.00;96.80;;;;;;4984464;28;19906;-67
2021/12/25 09:45:51;;;;;;;;;;;4.10;97.00;;;;;;4979560;28;19921;-68
2021/12/25 09:48:16;;;;;;;;;;;4.10;97.00;;;;;;4982121;28;19981;-67
2021/12/25 09:50:42;;;;;;;;;;;4.10;97.00;;;;;;4984043;28;20145;-68
2021/12/25 09:53:09;;;;;;;;;;;4.10;97.20;;;;;;4984433;28;19977;-67
2021/12/25 09:55:34;;;;;;;;;;;4.10;97.10;;;;;;4984682;28;19910;-67
2021/12/25 09:58:00;;;;;;;;;;;4.20;97.00;;;;;;5016565;28;20227;-67
2021/12/25 10:00:27;;;;;;;;;;;4.20;96.70;;;;;;4984387;28;19910;-67
2021/12/25 10:02:54;;;;;;;;;;;4.20;96.90;;;;;;4984700;28;19910;-67
2021/12/25 10:05:31;;;;;;;;;;;4.20;96.90;;;;;;4984538;28;19913;-68
2021/12/25 10:08:16;;;;;;;;;;;4.20;97.00;;;;;;4984748;28;19906;-67
2021/12/25 10:10:48;;;;;;;;;;;4.30;96.80;;;;;;4984968;28;19940;-68
2021/12/25 10:13:21;;;;;;;;;;;4.10;96.80;;;;;;4984357;28;19973;-67
2021/12/25 10:15:48;;;;;;;;;;;4.20;96.70;;;;;;4984406;28;20255;-67
2021/12/25 10:18:14;;;;;;;;;;;4.20;96.60;;;;;;4984239;28;20008;-67
2021/12/25 10:20:40;;;;;;;;;;;4.10;96.80;;;;;;4983961;28;19921;-67
2021/12/25 10:23:22;;;;;;;;;;;4.10;96.80;;;;;;4983990;28;20214;-67
2021/12/25 10:25:58;;;;;;;;;;;4.10;96.70;;;;;;4983715;28;19977;-68
2021/12/25 10:28:31;;;;;;;;;;;4.10;96.50;;;;;;4983704;28;19984;-68
2021/12/25 10:31:08;;;;;;;;;;;4.00;96.50;;;;;;4980951;28;19906;-67
2021/12/25 10:33:54;;;;;;;;;;;4.00;96.50;;;;;;4983323;28;19944;-67
2021/12/25 10:36:23;;;;;;;;;;;4.10;96.30;;;;;;4983349;28;19917;-68
2021/12/25 10:39:01;;;;;;;;;;;4.10;96.70;;;;;;4978648;28;20105;-68
2021/12/25 10:41:27;;;;;;;;;;;4.10;96.80;;;;;;4963647;28;19919;-67
2021/12/25 10:44:15;;;;;;;;;;;4.30;96.40;;;;;;4964069;28;19921;-68
2021/12/25 10:46:52;;;;;;;;;;;4.30;96.10;;;;;;4977136;28;20137;-68
2021/12/25 10:49:18;;;;;;;;;;;4.30;96.40;;;;;;4983363;28;19936;-68
2021/12/25 10:51:44;;;;;;;;;;;4.30;97.00;;;;;;4983163;28;19988;-68
2021/12/25 10:54:12;;;;;;;;;;;4.40;97.10;;;;;;4983256;28;19940;-67
2021/12/25 10:56:39;;;;;;;;;;;4.50;96.30;;;;;;4983329;28;19945;-67
2021/12/25 10:59:15;;;;;;;;;;;4.50;95.90;;;;;;4983322;28;19937;-68
2021/12/25 11:01:49;;;;;;;;;;;4.60;95.80;;;;;;4983105;28;19918;-67
2021/12/25 11:04:37;;;;;;;;;;;4.60;95.80;;;;;;4983012;28;19914;-71
2021/12/25 11:07:13;;;;;;;;;;;4.70;95.20;;;;;;4981979;28;19922;-71
2021/12/25 11:09:39;;;;;;;;;;;4.70;94.70;;;;;;4982275;28;20145;-68
2021/12/25 11:12:21;;;;;;;;;;;4.70;94.90;;;;;;4983008;28;19912;-72
2021/12/25 11:14:47;;;;;;;;;;;4.70;94.50;;;;;;4981590;28;20195;-72
2021/12/25 11:17:34;;;;;;;;;;;4.50;94.30;;;;;;4983227;28;19906;-72
2021/12/25 11:20:01;;;;;;;;;;;4.50;94.40;;;;;;4983154;28;19913;-72
2021/12/25 11:22:48;;;;;;;;;;;4.40;94.50;;;;;;4982757;28;19914;-72
2021/12/25 11:25:14;;;;;;;;;;;4.30;94.80;;;;;;4982400;28;19996;-72
2021/12/25 11:27:39;;;;;;;;;;;4.20;94.70;;;;;;4983772;28;20009;-70
2021/12/25 11:30:07;;;;;;;;;;;4.20;94.80;;;;;;4986910;28;19921;-70
2021/12/25 11:32:32;;;;;;;;;;;4.20;95.00;;;;;;4986712;28;19914;-70
2021/12/25 11:34:58;;;;;;;;;;;4.30;95.20;;;;;;4985751;28;19913;-69
2021/12/25 11:37:25;;;;;;;;;;;4.30;95.00;;;;;;4986884;28;19938;-69
2021/12/25 11:39:53;;;;;;;;;;;4.30;94.50;;;;;;4986653;28;20161;-69
2021/12/25 11:42:19;;;;;;;;;;;4.30;94.90;;;;;;4985546;28;19910;-69
2021/12/25 11:44:51;;;;;;;;;;;4.30;95.10;;;;;;4986438;28;19913;-70
2021/12/25 11:47:33;;;;;;;;;;;4.40;94.70;;;;;;4986916;28;19905;-70
2021/12/25 11:50:00;;;;;;;;;;;4.50;94.80;;;;;;4986588;28;19906;-71
2021/12/25 11:52:36;;;;;;;;;;;4.50;94.40;;;;;;4986325;28;19910;-71
2021/12/25 11:58:49;;;;;;;;;;;4.40;95.20;;;;;;5001781;28;20101;-70
2021/12/25 12:01:24;;;;;;;;;;;4.50;95.00;;;;;;4985360;28;19914;-70
2021/12/25 12:04:10;;;;;;;;;;;4.40;94.50;;;;;;4986453;28;20247;-71
2021/12/25 12:06:47;;;;;;;;;;;4.40;94.70;;;;;;4985695;28;19906;-71
2021/12/25 12:09:53;;;;;;;;;;;4.40;94.70;;;;;;4982406;28;19918;-69
2021/12/25 12:12:19;;;;;;;;;;;4.40;94.60;;;;;;4948675;29;19906;-70
2021/12/25 12:14:44;;;;;;;;;;;4.40;95.30;;;;;;4964346;29;19906;-70
2021/12/25 12:17:19;;;;;;;;;;;4.40;95.70;;;;;;4982467;28;19906;-70
2021/12/25 12:19:46;;;;;;;;;;;4.40;95.10;;;;;;4985225;28;19913;-70
2021/12/25 12:25:15;;;;;;;;;;;4.40;95.50;;;;;;4986197;28;20107;-72
2021/12/25 12:27:36;;;;;;;;;;;4.50;95.60;;;;;;4984576;28;20228;-70
2021/12/25 12:30:09;;;;;;;;;;;4.50;94.60;;;;;;4985071;28;19914;-70
2021/12/25 12:32:43;;;;;;;;;;;4.50;94.20;;;;;;4969013;28;19913;-70
2021/12/25 12:35:28;;;;;;;;;;;4.40;94.40;;;;;;4969415;28;19913;-70
2021/12/25 12:37:54;;;;;;;;;;;4.40;94.30;;;;;;4985779;28;20161;-70
2021/12/25 12:40:24;;;;;;;;;;;4.30;94.00;;;;;;4984596;28;19918;-70
2021/12/25 12:42:56;;;;;;;;;;;4.30;94.20;;;;;;4984237;28;19906;-70
2021/12/25 12:45:34;;;;;;;;;;;4.20;94.30;;;;;;4985267;28;19906;-70
2021/12/25 12:48:19;;;;;;;;;;;4.20;94.30;;;;;;4983144;28;19910;-70
2021/12/25 12:50:50;;;;;;;;;;;4.10;94.90;;;;;;4970616;28;19937;-71
2021/12/25 12:53:16;;;;;;;;;;;4.00;94.90;;;;;;4979246;28;19910;-72
2021/12/25 12:55:43;;;;;;;;;;;4.00;94.90;;;;;;4985392;28;19912;-72
2021/12/25 12:58:16;;;;;;;;;;;4.00;94.70;;;;;;4984518;28;19905;-72
2021/12/25 13:00:50;;;;;;;;;;;3.90;94.80;;;;;;4969561;28;19910;-72
2021/12/25 13:03:16;;;;;;;;;;;3.90;94.40;;;;;;4980679;28;19907;-73
2021/12/25 13:05:49;;;;;;;;;;;3.80;94.80;;;;;;4984041;28;19913;-73
2021/12/25 13:08:17;;;;;;;;;;;3.80;95.00;;;;;;4984410;28;19913;-72
2021/12/25 13:13:19;;;;;;;;;;;3.80;95.20;;;;;;4984600;28;19941;-72
2021/12/25 13:15:48;;;;;;;;;;;3.80;94.90;;;;;;4983964;28;19929;-71
2021/12/25 13:18:15;;;;;;;;;;;3.80;94.90;;;;;;4983746;28;19986;-71
2021/12/25 13:20:48;;;;;;;;;;;3.80;95.10;;;;;;4983391;28;19949;-71
2021/12/25 13:23:20;;;;;;;;;;;3.90;95.30;;;;;;4983738;28;19969;-73
2021/12/25 13:25:59;;;;;;;;;;;3.90;95.00;;;;;;4983564;28;19997;-73
2021/12/25 13:28:26;;;;;;;;;;;3.80;94.90;;;;;;4969467;28;19906;-74
2021/12/25 13:31:00;;;;;;;;;;;3.80;94.30;;;;;;4983628;28;19913;-74
2021/12/25 13:33:28;;;;;;;;;;;3.80;94.60;;;;;;4983503;28;19945;-75
2021/12/25 13:36:07;;;;;;;;;;;3.90;94.10;;;;;;4983528;28;20221;-77
2021/12/25 13:38:51;;;;;;;;;;;3.80;94.20;;;;;;4983835;28;19917;-72
2021/12/25 13:41:35;;;;;;;;;;;3.80;93.90;;;;;;4984744;28;20208;-74
2021/12/25 13:44:16;;;;;;;;;;;3.80;93.90;;;;;;4984217;28;19906;-73
2021/12/25 13:46:43;;;;;;;;;;;3.70;93.90;;;;;;4984211;28;19913;-72
2021/12/25 13:49:37;;;;;;;;;;;3.60;93.90;;;;;;4984712;28;19906;-73
2021/12/25 13:52:07;;;;;;;;;;;3.60;94.50;;;;;;4983139;28;19917;-77
2021/12/25 13:54:33;;;;;;;;;;;3.60;95.00;;;;;;4982913;28;19918;-75
2021/12/25 13:56:59;;;;;;;;;;;3.50;94.70;;;;;;4983649;28;19905;-75
2021/12/25 13:59:24;;;;;;;;;;;3.50;94.80;;;;;;4983433;28;19914;-75
2021/12/25 14:01:59;;;;;;;;;;;3.40;95.00;;;;;;4983302;28;19910;-75
2021/12/25 14:04:25;;;;;;;;;;;3.40;95.50;;;;;;4983843;28;20090;-74
2021/12/25 14:06:51;;;;;;;;;;;3.40;95.70;;;;;;4983281;28;19944;-76
2021/12/25 14:09:16;;;;;;;;;;;3.40;96.00;;;;;;4984261;28;19906;-74
2021/12/25 14:11:52;;;;;;;;;;;3.40;96.10;;;;;;4983351;28;19949;-75
2021/12/25 14:14:19;;;;;;;;;;;3.40;96.10;;;;;;4966326;28;19973;-75
2021/12/25 14:16:45;;;;;;;;;;;3.50;95.40;;;;;;4966874;28;19906;-75
2021/12/25 14:19:13;;;;;;;;;;;3.50;95.70;;;;;;4983366;28;20383;-75
2021/12/25 14:21:40;;;;;;;;;;;3.50;95.40;;;;;;4966906;28;19961;-74
2021/12/25 14:24:13;;;;;;;;;;;3.40;95.50;;;;;;4981872;28;20205;-75
2021/12/25 14:26:39;;;;;;;;;;;3.40;95.20;;;;;;4982536;28;19933;-75
2021/12/25 14:29:18;;;;;;;;;;;3.30;95.20;;;;;;4982235;28;20272;-75
2021/12/25 14:31:44;;;;;;;;;;;3.30;95.00;;;;;;4982718;28;19986;-75
2021/12/25 14:34:10;;;;;;;;;;;3.20;94.60;;;;;;4981697;28;19913;-75
2021/12/25 14:36:39;;;;;;;;;;;3.10;94.80;;;;;;4983761;28;19906;-76
2021/12/25 14:39:06;;;;;;;;;;;3.10;94.90;;;;;;4981956;28;19913;-75
2021/12/25 14:41:34;;;;;;;;;;;3.10;94.90;;;;;;4982657;28;20173;-75
2021/12/25 14:44:25;;;;;;;;;;;3.00;94.90;;;;;;4981918;28;19972;-75
2021/12/25 14:47:06;;;;;;;;;;;2.90;95.00;;;;;;4982491;28;19906;-75
2021/12/25 14:49:50;;;;;;;;;;;2.90;95.30;;;;;;4966205;28;19977;-75
2021/12/25 14:52:16;;;;;;;;;;;2.90;95.60;;;;;;4966410;28;19906;-75
2021/12/25 14:54:42;;;;;;;;;;;2.90;95.30;;;;;;4965214;28;19977;-75
2021/12/25 14:57:09;;;;;;;;;;;2.80;95.20;;;;;;4983756;28;19913;-75
2021/12/25 14:59:39;;;;;;;;;;;2.80;95.20;;;;;;4981584;28;19952;-76
2021/12/25 15:02:04;;;;;;;;;;;2.90;94.90;;;;;;4981747;28;20201;-75
2021/12/25 15:04:35;;;;;;;;;;;2.90;95.10;;;;;;4965187;28;19921;-75
2021/12/25 15:07:06;;;;;;;;;;;2.70;94.60;;;;;;4979607;28;20108;-74
2021/12/25 15:09:48;;;;;;;;;;;2.70;94.90;;;;;;4983534;28;19960;-75
2021/12/25 15:12:15;;;;;;;;;;;2.60;95.20;;;;;;4981191;28;19913;-74
2021/12/25 15:14:48;;;;;;;;;;;2.60;95.20;;;;;;4990662;28;19906;-74
2021/12/25 15:17:16;;;;;;;;;;;2.60;95.20;;;;;;4953140;28;19906;-73
2021/12/25 15:19:47;;;;;;;;;;;2.50;95.30;;;;;;4966363;28;20150;-74
2021/12/25 15:22:21;;;;;;;;;;;2.50;95.10;;;;;;4981082;28;19927;-75
2021/12/25 15:25:01;;;;;;;;;;;2.40;95.10;;;;;;4982172;28;19921;-74
2021/12/25 15:27:41;;;;;;;;;;;2.30;95.30;;;;;;4981077;28;19906;-73
2021/12/25 15:30:12;;;;;;;;;;;2.30;95.30;;;;;;4966729;28;19980;-73
2021/12/25 15:32:43;;;;;;;;;;;2.20;95.10;;;;;;4961801;28;19921;-73
2021/12/25 15:35:11;;;;;;;;;;;2.20;95.40;;;;;;4961904;29;19929;-74
2021/12/25 15:37:47;;;;;;;;;;;2.10;95.50;;;;;;4981135;28;19906;-74
2021/12/25 15:40:25;;;;;;;;;;;2.10;95.50;;;;;;4983148;28;19906;-74
2021/12/25 15:42:52;;;;;;;;;;;2.10;95.80;;;;;;4981414;28;20192;-74
2021/12/25 15:45:17;;;;;;;;;;;2.10;95.80;;;;;;4981670;28;19921;-73
2021/12/25 15:47:44;;;;;;;;;;;2.20;95.60;;;;;;4965672;28;20259;-74
2021/12/25 15:50:11;;;;;;;;;;;2.20;95.70;;;;;;4965796;28;20220;-74
2021/12/25 15:52:37;;;;;;;;;;;2.20;95.50;;;;;;4965344;28;19910;-74
2021/12/25 15:55:03;;;;;;;;;;;2.20;95.70;;;;;;4991916;28;20231;-73
2021/12/25 15:57:29;;;;;;;;;;;2.20;95.30;;;;;;4973408;28;19949;-74
2021/12/25 15:59:55;;;;;;;;;;;2.20;94.90;;;;;;4970627;28;19946;-74
2021/12/25 16:02:23;;;;;;;;;;;2.20;95.10;;;;;;4974641;28;19910;-74